createdAt,value
2022-11-30T00:01:20.599Z,39.85
2022-11-30T00:03:47.968Z,22.05
2022-11-30T00:06:16.891Z,29.17
2022-11-30T00:08:43.438Z,23.92
2022-11-30T00:11:18.027Z,33.13
2022-11-30T00:13:44.625Z,22.88
2022-11-30T00:16:11.183Z,43.58
2022-11-30T00:18:38.344Z,31.85
2022-11-30T00:21:10.740Z,32.22
2022-11-30T00:23:42.044Z,36.47
2022-11-30T00:26:11.606Z,28.77
2022-11-30T00:28:39.791Z,32.65
2022-11-30T00:31:12.908Z,30.67
2022-11-30T00:33:40.294Z,47.65
2022-11-30T00:36:19.563Z,31.80
2022-11-30T00:38:46.433Z,29.10
2022-11-30T00:41:13.358Z,22.85
2022-11-30T00:43:40.199Z,33.03
2022-11-30T00:46:09.218Z,26.52
2022-11-30T00:48:36.531Z,28.27
2022-11-30T00:51:03.575Z,25.42
2022-11-30T00:53:30.051Z,34.33
2022-11-30T00:55:56.659Z,38.03
2022-11-30T00:58:23.386Z,35.15
2022-11-30T01:00:50.005Z,33.60
2022-11-30T01:03:16.798Z,29.15
2022-11-30T01:05:43.375Z,32.67
2022-11-30T01:08:11.832Z,33.80
2022-11-30T01:10:40.295Z,38.90
2022-11-30T01:13:07.120Z,36.75
2022-11-30T01:15:44.006Z,24.65
2022-11-30T01:18:11.680Z,37.90
2022-11-30T01:20:42.845Z,22.48
2022-11-30T01:23:10.599Z,26.45
2022-11-30T01:25:37.150Z,24.20
2022-11-30T01:28:03.800Z,30.65
2022-11-30T01:30:30.318Z,24.63
2022-11-30T01:33:01.951Z,27.50
2022-11-30T01:35:28.469Z,31.02
2022-11-30T01:37:54.983Z,20.02
2022-11-30T01:40:21.537Z,24.23
2022-11-30T01:42:48.075Z,20.85
2022-11-30T01:45:15.214Z,17.95
2022-11-30T01:47:46.360Z,16.38
2022-11-30T01:50:29.529Z,18.15
2022-11-30T01:52:57.683Z,20.67
2022-11-30T01:55:35.992Z,19.67
2022-11-30T01:58:09.622Z,19.83
2022-11-30T02:00:36.118Z,22.58
2022-11-30T02:03:05.344Z,22.08
2022-11-30T02:05:34.792Z,19.88
2022-11-30T02:08:01.838Z,18.40
2022-11-30T02:10:32.490Z,26.98
2022-11-30T02:13:19.903Z,18.05
2022-11-30T02:16:15.779Z,18.38
2022-11-30T02:18:59.504Z,21.70
2022-11-30T02:21:32.128Z,20.63
2022-11-30T02:24:10.862Z,25.27
2022-11-30T02:27:15.443Z,19.67
2022-11-30T02:30:05.596Z,19.92
2022-11-30T02:32:37.769Z,23.08
2022-11-30T02:35:06.514Z,21.80
2022-11-30T02:37:35.245Z,21.70
2022-11-30T02:40:01.744Z,21.38
2022-11-30T02:42:28.212Z,24.20
2022-11-30T02:44:54.800Z,25.05
2022-11-30T02:47:27.694Z,27.83
2022-11-30T02:50:09.649Z,26.58
2022-11-30T02:52:36.309Z,30.48
2022-11-30T02:55:07.013Z,22.55
2022-11-30T02:57:34.096Z,34.63
2022-11-30T03:00:02.513Z,22.38
2022-11-30T03:02:29.117Z,24.75
2022-11-30T03:04:55.664Z,28.45
2022-11-30T03:07:22.292Z,29.63
2022-11-30T03:09:48.826Z,36.97
2022-11-30T03:12:15.319Z,29.40
2022-11-30T03:14:41.832Z,38.75
2022-11-30T03:17:08.615Z,35.72
2022-11-30T03:19:35.286Z,37.78
2022-11-30T03:22:01.764Z,34.83
2022-11-30T03:24:28.344Z,32.85
2022-11-30T03:26:54.897Z,29.50
2022-11-30T03:29:21.665Z,26.60
2022-11-30T03:31:48.616Z,44.15
2022-11-30T03:34:15.169Z,35.78
2022-11-30T03:36:41.677Z,38.30
2022-11-30T03:39:09.471Z,34.60
2022-11-30T03:41:36.488Z,44.22
2022-11-30T03:44:02.992Z,41.00
2022-11-30T03:46:29.575Z,44.60
2022-11-30T03:48:56.087Z,45.03
2022-11-30T03:51:22.697Z,56.22
2022-11-30T03:53:49.860Z,48.08
2022-11-30T03:56:16.874Z,44.45
2022-11-30T03:58:43.623Z,41.28
2022-11-30T04:01:10.148Z,41.33
2022-11-30T04:03:38.018Z,48.45
2022-11-30T04:06:06.577Z,48.60
2022-11-30T04:08:34.134Z,50.05
2022-11-30T04:11:02.103Z,47.13
2022-11-30T04:13:30.291Z,50.97
2022-11-30T04:15:56.948Z,53.92
2022-11-30T04:18:25.560Z,43.40
2022-11-30T04:20:56.647Z,36.15
2022-11-30T04:23:24.655Z,45.83
2022-11-30T04:25:52.026Z,46.10
2022-11-30T04:28:19.255Z,53.20
2022-11-30T04:30:47.900Z,52.25
2022-11-30T04:33:16.092Z,48.17
2022-11-30T04:35:48.298Z,58.70
2022-11-30T04:38:14.845Z,54.40
2022-11-30T04:40:42.685Z,53.40
2022-11-30T04:43:10.419Z,57.20
2022-11-30T04:45:37.050Z,55.55
2022-11-30T04:48:05.028Z,51.13
2022-11-30T04:50:31.964Z,45.72
2022-11-30T04:52:58.538Z,46.08
2022-11-30T04:55:25.283Z,42.72
2022-11-30T04:57:52.185Z,26.45
2022-11-30T05:00:19.696Z,22.58
2022-11-30T05:02:52.438Z,22.73
2022-11-30T05:05:20.202Z,24.05
2022-11-30T05:07:56.960Z,31.00
2022-11-30T05:10:24.253Z,33.33
2022-11-30T05:12:50.728Z,29.33
2022-11-30T05:15:18.085Z,25.13
2022-11-30T05:17:44.641Z,18.45
2022-11-30T05:20:11.481Z,25.17
2022-11-30T05:22:38.020Z,43.80
2022-11-30T05:25:04.869Z,43.53
2022-11-30T05:27:31.357Z,21.58
2022-11-30T05:29:57.858Z,22.15
2022-11-30T05:32:24.420Z,18.08
2022-11-30T05:34:51.930Z,12.45
2022-11-30T05:37:19.428Z,12.18
2022-11-30T05:39:46.044Z,12.48
2022-11-30T05:42:12.573Z,16.27
2022-11-30T05:44:39.034Z,15.38
2022-11-30T05:47:05.953Z,11.15
2022-11-30T05:49:32.604Z,11.95
2022-11-30T05:51:59.191Z,9.30
2022-11-30T05:54:25.784Z,9.05
2022-11-30T05:56:55.010Z,19.15
2022-11-30T05:59:22.207Z,11.95
2022-11-30T06:01:49.118Z,16.23
2022-11-30T06:04:15.817Z,14.85
2022-11-30T06:06:42.319Z,13.80
2022-11-30T06:09:08.900Z,13.50
2022-11-30T06:11:35.506Z,10.95
2022-11-30T06:14:02.186Z,10.23
2022-11-30T06:16:28.767Z,10.30
2022-11-30T06:18:55.309Z,11.40
2022-11-30T06:21:24.635Z,7.72
2022-11-30T06:23:52.418Z,15.88
2022-11-30T06:26:18.989Z,7.13
2022-11-30T06:28:48.553Z,7.82
2022-11-30T06:31:16.447Z,9.98
2022-11-30T06:33:43.321Z,14.30
2022-11-30T06:36:10.364Z,7.45
2022-11-30T06:38:37.315Z,13.45
2022-11-30T06:41:06.324Z,9.10
2022-11-30T06:43:35.269Z,7.45
2022-11-30T06:46:03.320Z,13.05
2022-11-30T06:48:30.098Z,12.07
2022-11-30T06:50:56.632Z,9.23
2022-11-30T06:53:23.104Z,13.20
2022-11-30T06:55:49.619Z,14.70
2022-11-30T06:58:16.111Z,10.88
2022-11-30T07:00:43.262Z,13.27
2022-11-30T07:03:11.550Z,18.10
2022-11-30T07:05:46.225Z,11.57
2022-11-30T07:10:42.765Z,7.75
2022-11-30T07:13:14.080Z,9.52
2022-11-30T07:15:41.406Z,9.35
2022-11-30T07:18:08.712Z,8.45
2022-11-30T07:20:36.382Z,11.68
2022-11-30T07:23:23.127Z,13.55
2022-11-30T07:26:06.695Z,11.85
2022-11-30T07:28:46.087Z,7.22
2022-11-30T07:31:16.687Z,9.13
2022-11-30T07:33:43.821Z,9.43
2022-11-30T07:36:11.138Z,11.50
2022-11-30T07:38:38.531Z,7.93
2022-11-30T07:41:05.464Z,9.48
2022-11-30T07:43:33.097Z,7.53
2022-11-30T07:46:01.508Z,6.80
2022-11-30T07:48:28.804Z,8.98
2022-11-30T07:51:01.633Z,8.50
2022-11-30T07:53:28.497Z,8.45
2022-11-30T07:56:00.850Z,9.98
2022-11-30T07:58:28.818Z,8.02
2022-11-30T08:00:55.470Z,22.10
2022-11-30T08:03:22.139Z,10.15
2022-11-30T08:05:48.696Z,17.00
2022-11-30T08:08:15.226Z,16.25
2022-11-30T08:10:41.721Z,11.80
2022-11-30T08:13:08.209Z,10.52
2022-11-30T08:15:35.166Z,7.78
2022-11-30T08:18:05.561Z,11.38
2022-11-30T08:20:32.123Z,10.05
2022-11-30T08:22:59.461Z,9.13
2022-11-30T08:25:25.945Z,8.10
2022-11-30T08:27:52.481Z,12.40
2022-11-30T08:30:19.172Z,7.50
2022-11-30T08:32:45.656Z,10.38
2022-11-30T08:35:12.671Z,11.90
2022-11-30T08:37:39.168Z,9.50
2022-11-30T08:40:06.376Z,10.57
2022-11-30T08:42:32.874Z,12.57
2022-11-30T08:44:59.678Z,9.23
2022-11-30T08:47:26.604Z,9.27
2022-11-30T08:49:53.245Z,10.32
2022-11-30T08:52:19.867Z,9.35
2022-11-30T08:54:48.048Z,12.80
2022-11-30T08:57:17.480Z,9.57
2022-11-30T08:59:44.412Z,11.10
2022-11-30T09:02:18.844Z,8.85
2022-11-30T09:04:48.705Z,8.45
2022-11-30T09:07:15.274Z,9.18
2022-11-30T09:09:41.837Z,9.77
2022-11-30T09:12:08.428Z,13.90
2022-11-30T09:14:35.050Z,14.10
2022-11-30T09:17:01.809Z,10.05
2022-11-30T09:19:28.336Z,27.98
2022-11-30T09:21:54.905Z,12.45
2022-11-30T09:24:21.943Z,8.68
2022-11-30T09:26:48.521Z,16.50
2022-11-30T09:29:15.063Z,13.15
2022-11-30T09:31:41.798Z,14.70
2022-11-30T09:34:11.240Z,10.88
2022-11-30T09:36:38.358Z,9.75
2022-11-30T09:39:04.912Z,11.68
2022-11-30T09:41:34.218Z,13.52
2022-11-30T09:44:05.346Z,10.15
2022-11-30T09:46:59.256Z,16.88
2022-11-30T09:49:31.909Z,9.93
2022-11-30T09:52:04.348Z,10.00
2022-11-30T09:54:35.644Z,12.30
2022-11-30T09:57:34.727Z,11.27
2022-11-30T10:00:12.688Z,8.70
2022-11-30T10:02:43.001Z,16.02
2022-11-30T10:05:32.957Z,11.13
2022-11-30T10:08:17.772Z,12.50
2022-11-30T10:11:22.229Z,11.27
2022-11-30T10:14:23.185Z,12.05
2022-11-30T10:17:08.598Z,11.70
2022-11-30T10:19:44.370Z,16.65
2022-11-30T10:22:49.318Z,15.50
2022-11-30T10:25:29.893Z,56.70
2022-11-30T10:28:38.685Z,16.40
2022-11-30T10:30:56.094Z,13.25
2022-11-30T10:33:38.507Z,10.90
2022-11-30T10:36:40.050Z,10.90
2022-11-30T10:39:51.420Z,13.50
2022-11-30T10:42:44.733Z,17.60
2022-11-30T10:45:15.251Z,13.50
2022-11-30T10:48:12.688Z,13.18
2022-11-30T10:50:41.880Z,13.48
2022-11-30T10:53:12.779Z,12.70
2022-11-30T10:55:43.636Z,14.35
2022-11-30T10:58:19.611Z,13.82
2022-11-30T11:01:06.731Z,15.50
2022-11-30T11:03:34.215Z,15.30
2022-11-30T11:06:22.756Z,20.40
2022-11-30T11:08:50.469Z,20.95
2022-11-30T11:11:35.480Z,23.25
2022-11-30T11:17:18.388Z,19.77
2022-11-30T11:19:47.515Z,18.45
2022-11-30T11:22:26.592Z,18.67
2022-11-30T11:25:23.289Z,14.00
2022-11-30T11:28:03.183Z,25.30
2022-11-30T11:30:31.137Z,17.67
2022-11-30T11:33:25.214Z,15.73
2022-11-30T11:36:15.984Z,18.38
2022-11-30T11:38:45.762Z,17.40
2022-11-30T11:41:33.702Z,15.48
2022-11-30T11:44:21.447Z,12.07
2022-11-30T11:47:00.012Z,16.60
2022-11-30T11:49:34.467Z,14.52
2022-11-30T11:52:09.958Z,19.08
2022-11-30T11:54:43.446Z,19.75
2022-11-30T11:57:17.180Z,17.02
2022-11-30T12:00:02.384Z,17.10
2022-11-30T12:02:46.021Z,13.00
2022-11-30T12:05:24.559Z,15.55
2022-11-30T12:08:28.274Z,19.40
2022-11-30T12:11:04.729Z,15.82
2022-11-30T12:13:39.556Z,15.80
2022-11-30T12:16:12.050Z,18.67
2022-11-30T12:18:44.731Z,14.40
2022-11-30T12:21:24.026Z,17.27
2022-11-30T12:24:21.081Z,19.80
2022-11-30T12:26:55.885Z,20.08
2022-11-30T12:32:27.301Z,18.27
2022-11-30T12:35:41.906Z,20.88
2022-11-30T12:38:26.854Z,20.92
2022-11-30T12:41:17.585Z,17.92
2022-11-30T12:44:00.811Z,20.60
2022-11-30T12:46:50.455Z,20.80
2022-11-30T12:49:41.623Z,14.60
2022-11-30T12:52:41.517Z,17.30
2022-11-30T12:55:26.759Z,14.23
2022-11-30T12:58:20.470Z,22.70
2022-11-30T13:01:08.218Z,16.02
2022-11-30T13:03:45.373Z,14.18
2022-11-30T13:06:20.390Z,14.93
2022-11-30T13:08:57.145Z,15.45
2022-11-30T13:11:32.779Z,13.52
2022-11-30T13:14:00.624Z,17.65
2022-11-30T13:16:30.530Z,15.68
2022-11-30T13:19:19.386Z,15.23
2022-11-30T13:21:55.038Z,13.73
2022-11-30T13:24:37.238Z,13.98
2022-11-30T13:27:14.918Z,14.07
2022-11-30T13:30:13.388Z,11.68
2022-11-30T13:35:29.599Z,10.90
2022-11-30T13:41:05.106Z,15.60
2022-11-30T13:43:45.381Z,13.68
2022-11-30T13:46:12.301Z,13.82
2022-11-30T13:48:41.285Z,9.43
2022-11-30T13:51:08.744Z,10.95
2022-11-30T13:53:38.969Z,8.90
2022-11-30T13:56:17.673Z,12.93
2022-11-30T13:59:24.672Z,7.25
2022-11-30T14:01:53.193Z,8.35
2022-11-30T14:04:19.931Z,11.30
2022-11-30T14:06:55.502Z,10.82
2022-11-30T14:09:37.387Z,24.33
2022-11-30T14:12:31.775Z,9.05
2022-11-30T14:15:00.105Z,10.55
2022-11-30T14:17:29.400Z,11.48
2022-11-30T14:20:14.345Z,7.07
2022-11-30T14:22:41.191Z,7.32
2022-11-30T14:25:20.624Z,9.55
2022-11-30T14:27:50.541Z,6.18
2022-11-30T14:30:20.948Z,8.25
2022-11-30T14:32:58.514Z,7.72
2022-11-30T14:35:29.661Z,8.18
2022-11-30T14:37:59.585Z,7.45
2022-11-30T14:40:32.587Z,24.95
2022-11-30T14:43:01.491Z,7.68
2022-11-30T14:45:33.660Z,8.65
2022-11-30T14:48:06.497Z,7.13
2022-11-30T14:50:34.904Z,10.88
2022-11-30T14:53:20.055Z,12.15
2022-11-30T14:56:00.132Z,9.38
2022-11-30T14:58:54.007Z,7.78
2022-11-30T15:01:23.702Z,7.93
2022-11-30T15:03:54.761Z,9.82
2022-11-30T15:06:28.069Z,12.65
2022-11-30T15:08:57.913Z,9.85
2022-11-30T15:11:27.209Z,9.57
2022-11-30T15:13:57.520Z,7.97
2022-11-30T15:16:24.756Z,14.65
2022-11-30T15:18:53.530Z,11.48
2022-11-30T15:21:24.164Z,13.48
2022-11-30T15:24:01.557Z,8.95
2022-11-30T15:26:31.086Z,8.25
2022-11-30T15:29:01.211Z,10.77
2022-11-30T15:31:36.874Z,9.55
2022-11-30T15:34:05.116Z,10.45
2022-11-30T15:36:39.294Z,12.63
2022-11-30T15:39:08.177Z,12.52
2022-11-30T15:41:36.424Z,12.02
2022-11-30T15:44:03.388Z,12.32
2022-11-30T15:46:41.219Z,15.55
2022-11-30T15:49:12.800Z,11.02
2022-11-30T15:51:45.337Z,9.02
2022-11-30T15:54:12.326Z,13.43
2022-11-30T15:56:38.985Z,11.63
2022-11-30T15:59:26.018Z,9.82
2022-11-30T16:02:14.592Z,11.25
2022-11-30T16:04:56.798Z,9.57
2022-11-30T16:07:30.268Z,18.45
2022-11-30T16:10:06.360Z,17.17
2022-11-30T16:12:33.566Z,11.88
2022-11-30T16:15:00.353Z,12.88
2022-11-30T16:17:28.169Z,10.77
2022-11-30T16:19:55.449Z,10.20
2022-11-30T16:22:22.214Z,8.98
2022-11-30T16:24:48.957Z,12.98
2022-11-30T16:27:17.586Z,10.75
2022-11-30T16:29:50.500Z,15.52
2022-11-30T16:34:48.271Z,11.73
2022-11-30T16:37:14.859Z,12.90
2022-11-30T16:39:41.595Z,12.13
2022-11-30T16:42:12.633Z,11.95
2022-11-30T16:44:39.246Z,8.23
2022-11-30T16:47:05.900Z,11.65
2022-11-30T16:49:32.438Z,11.27
2022-11-30T16:51:58.923Z,10.48
2022-11-30T16:54:25.472Z,12.90
2022-11-30T16:56:51.933Z,12.65
2022-11-30T16:59:18.528Z,13.20
2022-11-30T17:01:47.363Z,11.98
2022-11-30T17:04:26.106Z,11.65
2022-11-30T17:06:58.782Z,12.10
2022-11-30T17:09:30.480Z,14.35
2022-11-30T17:11:57.167Z,17.80
2022-11-30T17:14:26.231Z,14.82
2022-11-30T17:16:52.869Z,16.13
2022-11-30T17:19:19.712Z,12.52
2022-11-30T17:21:46.514Z,12.05
2022-11-30T17:24:13.345Z,16.00
2022-11-30T17:26:40.181Z,15.45
2022-11-30T17:29:06.672Z,17.63
2022-11-30T17:31:33.509Z,17.88
2022-11-30T17:34:00.468Z,18.75
2022-11-30T17:36:29.667Z,30.33
2022-11-30T17:38:56.783Z,27.15
2022-11-30T17:41:23.885Z,27.75
2022-11-30T17:43:50.660Z,26.38
2022-11-30T17:46:18.604Z,18.73
2022-11-30T17:48:45.812Z,18.98
2022-11-30T17:51:13.251Z,18.45
2022-11-30T17:53:41.201Z,20.75
2022-11-30T17:56:16.434Z,20.50
2022-11-30T17:58:44.984Z,17.02
2022-11-30T18:01:17.563Z,22.70
2022-11-30T18:03:45.091Z,16.45
2022-11-30T18:06:11.996Z,19.63
2022-11-30T18:08:40.112Z,20.88
2022-11-30T18:11:11.393Z,18.63
2022-11-30T18:13:38.756Z,20.63
2022-11-30T18:16:15.254Z,16.88
2022-11-30T18:18:47.339Z,17.98
2022-11-30T18:21:17.125Z,22.52
2022-11-30T18:23:43.753Z,20.55
2022-11-30T18:26:17.471Z,21.30
2022-11-30T18:28:44.483Z,20.57
2022-11-30T18:31:11.447Z,17.92
2022-11-30T18:33:38.579Z,20.42
2022-11-30T18:36:07.414Z,22.75
2022-11-30T18:38:38.411Z,21.63
2022-11-30T18:41:06.738Z,23.90
2022-11-30T18:43:34.650Z,24.50
2022-11-30T18:46:09.911Z,25.35
2022-11-30T18:48:37.259Z,24.17
2022-11-30T18:51:15.199Z,25.13
2022-11-30T18:53:42.308Z,22.10
2022-11-30T18:56:17.133Z,25.65
2022-11-30T18:58:44.733Z,25.25
2022-11-30T19:01:20.594Z,25.50
2022-11-30T19:03:54.482Z,22.67
2022-11-30T19:06:22.081Z,24.50
2022-11-30T19:08:48.625Z,26.70
2022-11-30T19:11:16.123Z,25.55
2022-11-30T19:13:43.579Z,26.38
2022-11-30T19:16:13.116Z,24.83
2022-11-30T19:18:39.775Z,29.63
2022-11-30T19:21:11.592Z,29.08
2022-11-30T19:23:39.199Z,25.70
2022-11-30T19:26:07.762Z,22.10
2022-11-30T19:28:35.702Z,21.65
2022-11-30T19:31:09.014Z,24.38
2022-11-30T19:33:37.204Z,45.25
2022-11-30T19:36:06.167Z,36.67
2022-11-30T19:38:33.032Z,39.28
2022-11-30T19:41:03.995Z,31.88
2022-11-30T19:43:30.653Z,31.98
2022-11-30T19:46:04.443Z,31.75
2022-11-30T19:48:31.053Z,33.40
2022-11-30T19:50:57.689Z,36.53
2022-11-30T19:53:24.206Z,33.35
2022-11-30T19:55:50.705Z,30.98
2022-11-30T19:58:17.497Z,37.13
2022-11-30T20:00:46.794Z,32.83
2022-11-30T20:03:13.375Z,34.88
2022-11-30T20:05:39.976Z,35.03
2022-11-30T20:08:06.539Z,41.33
2022-11-30T20:10:33.122Z,36.17
2022-11-30T20:12:59.630Z,39.10
2022-11-30T20:15:26.189Z,36.42
2022-11-30T20:17:52.715Z,33.40
2022-11-30T20:20:19.254Z,34.97
2022-11-30T20:22:45.901Z,38.60
2022-11-30T20:25:12.447Z,35.20
2022-11-30T20:27:39.233Z,33.60
2022-11-30T20:30:08.098Z,42.67
2022-11-30T20:32:37.780Z,38.25
2022-11-30T20:35:04.602Z,38.25
2022-11-30T20:37:31.398Z,41.38
2022-11-30T20:39:58.205Z,37.22
2022-11-30T20:42:24.809Z,39.50
2022-11-30T20:44:51.502Z,43.70
2022-11-30T20:47:18.043Z,39.85
2022-11-30T20:49:44.621Z,44.67
2022-11-30T20:52:11.099Z,42.03
2022-11-30T20:54:37.641Z,44.78
2022-11-30T20:57:04.255Z,52.20
2022-11-30T20:59:30.716Z,50.95
2022-11-30T21:01:57.409Z,45.00
2022-11-30T21:04:25.813Z,39.30
2022-11-30T21:06:52.990Z,46.42
2022-11-30T21:09:20.736Z,50.28
2022-11-30T21:11:48.696Z,44.30
2022-11-30T21:14:17.809Z,43.03
2022-11-30T21:16:44.382Z,41.72
2022-11-30T21:19:12.455Z,37.78
2022-11-30T21:21:39.059Z,37.10
2022-11-30T21:24:08.459Z,38.97
2022-11-30T21:26:37.600Z,40.17
2022-11-30T21:29:11.893Z,40.22
2022-11-30T21:31:38.611Z,40.88
2022-11-30T21:34:05.247Z,47.72
2022-11-30T21:36:31.817Z,41.13
2022-11-30T21:39:05.651Z,49.40
2022-11-30T21:41:34.281Z,43.85
2022-11-30T21:44:00.889Z,42.53
2022-11-30T21:46:27.521Z,44.28
2022-11-30T21:48:54.125Z,41.58
2022-11-30T21:51:23.653Z,42.95
2022-11-30T21:53:52.884Z,40.58
2022-11-30T21:56:22.009Z,40.78
2022-11-30T21:58:50.498Z,47.03
2022-11-30T22:01:25.208Z,43.38
2022-11-30T22:06:21.556Z,43.53
2022-11-30T22:08:48.796Z,55.38
2022-11-30T22:11:17.638Z,41.97
2022-11-30T22:13:45.564Z,45.10
2022-11-30T22:16:14.620Z,40.50
2022-11-30T22:18:42.817Z,44.42
2022-11-30T22:21:13.650Z,47.38
2022-11-30T22:23:43.078Z,41.63
2022-11-30T22:26:27.793Z,48.60
2022-11-30T22:28:59.385Z,41.83
2022-11-30T22:31:29.153Z,53.55
2022-11-30T22:33:57.143Z,44.13
2022-11-30T22:36:26.004Z,44.00
2022-11-30T22:38:57.830Z,40.47
2022-11-30T22:41:25.493Z,39.05
2022-11-30T22:43:52.170Z,44.10
2022-11-30T22:46:21.416Z,39.45
2022-11-30T22:48:48.225Z,39.15
2022-11-30T22:51:20.313Z,42.08
2022-11-30T22:53:48.932Z,44.42
2022-11-30T22:56:26.336Z,42.05
2022-11-30T22:58:54.937Z,37.28
2022-11-30T23:01:33.739Z,43.15
2022-11-30T23:04:11.272Z,39.30
2022-11-30T23:06:39.869Z,39.00
2022-11-30T23:09:10.881Z,38.13
2022-11-30T23:11:37.367Z,37.33
2022-11-30T23:14:06.156Z,37.78
2022-11-30T23:16:32.804Z,34.90
2022-11-30T23:19:00.430Z,32.95
2022-11-30T23:21:38.947Z,36.75
2022-11-30T23:24:10.698Z,34.47
2022-11-30T23:26:38.489Z,34.75
2022-11-30T23:29:09.810Z,39.30
2022-11-30T23:31:39.180Z,37.47
2022-11-30T23:34:11.540Z,36.15
2022-11-30T23:36:38.067Z,40.95
2022-11-30T23:39:16.258Z,47.13
2022-11-30T23:41:43.120Z,43.15
2022-11-30T23:44:10.726Z,39.17
2022-11-30T23:46:37.506Z,44.47
2022-11-30T23:49:04.074Z,41.17
2022-11-30T23:51:30.710Z,46.13
2022-11-30T23:53:57.313Z,42.40
2022-11-30T23:56:24.421Z,39.30
2022-11-30T23:58:52.161Z,36.65
